Time,TemperatureF,DewpointF,PressureIn,WindDirection,WindDirectionDegrees,WindSpeedMPH,WindSpeedGustMPH,Humidity,HourlyPrecipIn,Conditions,Clouds,dailyrainin,SoftwareType,DateUTC
2013-01-30 00:00:00,-9.0,-12.0,-100.00,WNW,288,12.0,28.0,82,-99.99,,,-99.99,,2013-01-30 07:00:00,
2013-01-30 00:42:00,-9.0,-12.0,-100.00,WNW,288,12.0,28.0,82,-99.99,,,-99.99,,2013-01-30 07:42:00,
2013-01-30 00:52:00,-9.0,-12.0,-100.00,WNW,288,12.0,28.0,82,-99.99,,,-99.99,,2013-01-30 07:52:00,
2013-01-30 02:00:00,-8.0,-12.0,-100.00,WNW,286,25.0,52.0,84,-99.99,,,-99.99,,2013-01-30 09:00:00,
2013-01-30 02:42:00,-8.0,-12.0,-100.00,WNW,286,25.0,52.0,84,-99.99,,,-99.99,,2013-01-30 09:42:00,
2013-01-30 02:52:00,-8.0,-12.0,-100.00,WNW,286,25.0,52.0,84,-99.99,,,-99.99,,2013-01-30 09:52:00,
2013-01-30 03:00:00,-8.0,-12.0,-100.00,WNW,295,34.0,57.0,84,-99.99,,,-99.99,,2013-01-30 10:00:00,
2013-01-30 03:42:00,-8.0,-12.0,-100.00,WNW,295,34.0,57.0,84,-99.99,,,-99.99,,2013-01-30 10:42:00,
2013-01-30 03:52:00,-8.0,-12.0,-100.00,WNW,295,34.0,57.0,84,-99.99,,,-99.99,,2013-01-30 10:52:00,
2013-01-30 04:00:00,-8.0,-12.0,-100.00,WNW,295,36.0,56.0,84,-99.99,,,-99.99,,2013-01-30 11:00:00,
2013-01-30 04:42:00,-8.0,-12.0,-100.00,WNW,295,36.0,56.0,84,-99.99,,,-99.99,,2013-01-30 11:42:00,
2013-01-30 04:52:00,-8.0,-12.0,-100.00,WNW,295,36.0,56.0,84,-99.99,,,-99.99,,2013-01-30 11:52:00,
2013-01-30 05:00:00,-9.0,-12.0,-100.00,WNW,296,28.0,53.0,85,-99.99,,,-99.99,,2013-01-30 12:00:00,
2013-01-30 05:43:00,-9.0,-12.0,-100.00,WNW,296,28.0,53.0,85,-99.99,,,-99.99,,2013-01-30 12:43:00,
2013-01-30 08:00:00,-5.0,-8.0,-100.00,WNW,295,19.0,51.0,87,-99.99,,,-99.99,,2013-01-30 15:00:00,
2013-01-30 08:43:00,-5.0,-8.0,-100.00,WNW,295,19.0,51.0,87,-99.99,,,-99.99,,2013-01-30 15:43:00,
2013-01-30 08:53:00,-5.0,-8.0,-100.00,WNW,295,19.0,51.0,87,-99.99,,,-99.99,,2013-01-30 15:53:00,
2013-01-30 09:00:00,-3.0,-6.0,-100.00,WNW,300,16.0,37.0,87,-99.99,,,-99.99,,2013-01-30 16:00:00,
2013-01-30 09:42:00,-3.0,-6.0,-100.00,WNW,300,16.0,37.0,87,-99.99,,,-99.99,,2013-01-30 16:42:00,
2013-01-30 09:52:00,-3.0,-6.0,-100.00,WNW,300,16.0,37.0,87,-99.99,,,-99.99,,2013-01-30 16:52:00,
2013-01-30 13:00:00,3.0,1.0,-100.00,WNW,293,29.0,64.0,91,-99.99,,,-99.99,,2013-01-30 20:00:00,
2013-01-30 13:42:00,3.0,1.0,-100.00,WNW,293,29.0,64.0,91,-99.99,,,-99.99,,2013-01-30 20:42:00,
2013-01-30 13:53:00,3.0,1.0,-100.00,WNW,293,29.0,64.0,91,-99.99,,,-99.99,,2013-01-30 20:53:00,
2013-01-30 15:00:00,5.0,3.0,-100.00,WNW,286,23.0,52.0,89,-99.99,,,-99.99,,2013-01-30 22:00:00,
2013-01-30 15:43:00,5.0,3.0,-100.00,WNW,286,23.0,52.0,89,-99.99,,,-99.99,,2013-01-30 22:43:00,
2013-01-30 15:53:00,5.0,3.0,-100.00,WNW,286,23.0,52.0,89,-99.99,,,-99.99,,2013-01-30 22:53:00,
2013-01-30 21:00:00,7.0,6.0,-100.00,WNW,294,30.0,53.0,92,-99.99,,,-99.99,,2013-01-31 04:00:00,
2013-01-30 21:42:00,7.0,6.0,-100.00,WNW,294,30.0,53.0,92,-99.99,,,-99.99,,2013-01-31 04:42:00,
2013-01-30 21:52:00,7.0,6.0,-100.00,WNW,294,30.0,53.0,92,-99.99,,,-99.99,,2013-01-31 04:52:00,
2013-01-30 22:00:00,7.0,5.0,-100.00,WNW,291,30.0,58.0,91,-99.99,,,-99.99,,2013-01-31 05:00:00,
2013-01-30 22:42:00,7.0,5.0,-100.00,WNW,291,30.0,58.0,91,-99.99,,,-99.99,,2013-01-31 05:42:00,
2013-01-30 22:52:00,7.0,5.0,-100.00,WNW,291,30.0,58.0,91,-99.99,,,-99.99,,2013-01-31 05:52:00,